Time;durP1;ratioP1;P1;durP2;ratioP2;P2;SDS_P1;SDS_P2;PMS_P1;PMS_P2;Temp;Humidity;BMP_temperature;BMP_pressure;BME280_temperature;BME280_humidity;BME280_pressure;Samples;Min_cycle;Max_cycle;Signal;HPM_P1;HPM_P2
2022/07/22 00:04:29;;;;;;;0.00;0.00;;;;;;;16.07;100.00;102245.88;10502218;28;20041;-82
2022/07/22 00:09:32;;;;;;;0.00;0.00;;;;;;;16.08;100.00;102241.56;10494376;28;20045;-82
2022/07/22 00:14:33;;;;;;;0.70;0.30;;;;;;;16.04;100.00;102248.41;10519716;28;20487;-82
2022/07/22 00:19:35;;;;;;;0.00;0.00;;;;;;;16.04;100.00;102231.91;10528073;28;20420;-81
2022/07/22 00:24:37;;;;;;;0.25;0.10;;;;;;;16.15;100.00;102227.88;10518713;28;20040;-81
2022/07/22 00:29:38;;;;;;;1.75;0.10;;;;;;;16.05;100.00;102228.47;10529799;28;20041;-81
2022/07/22 00:34:40;;;;;;;0.00;0.00;;;;;;;15.95;100.00;102227.38;10520056;28;20052;-81
2022/07/22 00:39:42;;;;;;;0.20;0.20;;;;;;;16.00;100.00;102228.34;10501692;28;20049;-82
2022/07/22 00:44:47;;;;;;;0.00;0.00;;;;;;;16.26;100.00;102212.53;10495451;28;20049;-82
2022/07/22 00:49:52;;;;;;;0.00;0.00;;;;;;;16.27;100.00;102203.88;10497670;28;20041;-81
2022/07/22 00:54:58;;;;;;;0.00;0.00;;;;;;;16.26;100.00;102202.13;10485162;28;20055;-82
2022/07/22 01:00:01;;;;;;;0.10;0.10;;;;;;;16.29;100.00;102202.16;10502767;28;20071;-81
2022/07/22 01:05:04;;;;;;;0.00;0.00;;;;;;;16.25;100.00;102215.97;10503579;28;20052;-82
2022/07/22 01:10:07;;;;;;;0.00;0.00;;;;;;;16.25;100.00;102213.34;10503556;28;20484;-82
2022/07/22 01:15:09;;;;;;;0.17;0.10;;;;;;;16.31;100.00;102208.28;10504260;28;20052;-82
2022/07/22 01:20:11;;;;;;;0.13;0.13;;;;;;;16.30;100.00;102210.03;10502051;28;20060;-82
2022/07/22 01:25:14;;;;;;;0.30;0.17;;;;;;;16.26;100.00;102212.53;10500099;28;20072;-82
2022/07/22 01:30:18;;;;;;;0.00;0.00;;;;;;;16.35;100.00;102210.09;10480793;28;20068;-82
2022/07/22 01:35:19;;;;;;;0.10;0.10;;;;;;;16.29;100.00;102217.78;10501199;28;20075;-82
2022/07/22 01:40:21;;;;;;;0.00;0.00;;;;;;;16.36;100.00;102203.19;10492161;28;20075;-82
2022/07/22 01:45:23;;;;;;;0.10;0.10;;;;;;;16.29;100.00;102222.97;10492958;28;20041;-82
2022/07/22 01:50:25;;;;;;;0.03;0.03;;;;;;;16.30;100.00;102225.63;10491650;28;20496;-81
2022/07/22 01:55:27;;;;;;;0.20;0.20;;;;;;;16.39;100.00;102211.06;10493208;28;20511;-81
2022/07/22 02:00:28;;;;;;;0.00;0.00;;;;;;;16.44;100.00;102199.06;10492615;28;20098;-81
2022/07/22 02:05:34;;;;;;;0.10;0.10;;;;;;;16.19;100.00;102221.88;10492478;28;20074;-81
2022/07/22 02:10:44;;;;;;;0.00;0.00;;;;;;;16.24;100.00;102206.41;10493513;28;20049;-82
2022/07/22 02:15:46;;;;;;;0.10;0.10;;;;;;;16.15;100.00;102210.53;10494504;28;20098;-81
2022/07/22 02:20:48;;;;;;;0.00;0.00;;;;;;;16.33;100.00;102194.47;10494948;28;20479;-81
2022/07/22 02:25:53;;;;;;;0.00;0.00;;;;;;;16.29;100.00;102197.88;10478482;28;20408;-81
2022/07/22 02:30:55;;;;;;;0.00;0.00;;;;;;;16.29;100.00;102186.56;10477345;28;20053;-81
2022/07/22 02:35:57;;;;;;;0.03;0.03;;;;;;;16.25;100.00;102188.22;10475813;28;20488;-82
2022/07/22 02:40:59;;;;;;;0.00;0.00;;;;;;;16.17;100.00;102182.84;10494602;28;20048;-81
2022/07/22 02:46:01;;;;;;;0.00;0.00;;;;;;;16.27;100.00;102180.47;10477727;28;20515;-81
2022/07/22 02:51:03;;;;;;;1.65;1.20;;;;;;;16.31;100.00;102179.69;10477442;28;20044;-81
2022/07/22 02:56:05;;;;;;;0.10;0.05;;;;;;;16.22;100.00;102185.56;10494731;28;20098;-81
2022/07/22 03:01:08;;;;;;;0.45;0.32;;;;;;;16.13;100.00;102191.41;10495338;28;20045;-81
2022/07/22 03:06:21;;;;;;;0.40;0.30;;;;;;;16.09;100.00;102194.78;10482376;28;20051;-81
2022/07/22 03:11:35;;;;;;;0.00;0.00;;;;;;;16.19;100.00;102193.28;10490259;28;20044;-82
2022/07/22 03:16:38;;;;;;;0.00;0.00;;;;;;;16.07;100.00;102191.28;10495916;28;20484;-81
2022/07/22 03:21:40;;;;;;;0.10;0.10;;;;;;;16.11;100.00;102197.41;10496893;28;20049;-81
2022/07/22 03:26:42;;;;;;;0.10;0.10;;;;;;;16.18;100.00;102196.72;10498498;28;20047;-81
2022/07/22 03:31:44;;;;;;;0.10;0.10;;;;;;;16.06;100.00;102201.66;10488310;28;20048;-81
2022/07/22 03:36:46;;;;;;;0.30;0.30;;;;;;;16.12;100.00;102194.84;10485807;28;20051;-81
2022/07/22 03:41:48;;;;;;;0.20;0.10;;;;;;;15.98;100.00;102193.66;10490960;28;20049;-81
2022/07/22 03:46:50;;;;;;;0.20;0.20;;;;;;;16.12;100.00;102193.97;10509327;28;20072;-81
2022/07/22 03:51:53;;;;;;;0.10;0.10;;;;;;;16.16;100.00;102191.50;10484711;28;20067;-81
2022/07/22 03:56:54;;;;;;;0.25;0.10;;;;;;;16.06;100.00;102199.91;10468076;28;20056;-81
2022/07/22 04:01:56;;;;;;;0.10;0.10;;;;;;;16.23;100.00;102202.03;10470532;28;20072;-81
2022/07/22 04:06:58;;;;;;;0.13;0.13;;;;;;;16.10;100.00;102196.56;10499869;28;20051;-81
2022/07/22 04:12:07;;;;;;;2.58;0.35;;;;;;;16.17;100.00;102206.25;10485507;28;20087;-82
2022/07/22 04:17:21;;;;;;;1.00;0.30;;;;;;;16.12;100.00;102204.38;10469343;28;20044;-81
2022/07/22 04:22:23;;;;;;;0.00;0.00;;;;;;;16.23;100.00;102207.22;10490127;28;20132;-82
2022/07/22 04:27:29;;;;;;;0.20;0.20;;;;;;;16.26;100.00;102202.13;10466580;28;20044;-81
2022/07/22 04:32:30;;;;;;;0.10;0.10;;;;;;;16.31;100.00;102196.16;10476000;28;20048;-82
2022/07/22 04:37:32;;;;;;;0.30;0.20;;;;;;;16.24;100.00;102188.19;10493049;28;20458;-82
2022/07/22 04:42:35;;;;;;;0.28;0.20;;;;;;;16.33;100.00;102172.81;10492875;28;20044;-81
2022/07/22 04:47:37;;;;;;;0.10;0.08;;;;;;;16.39;100.00;102177.25;10492315;28;20066;-82
2022/07/22 04:52:39;;;;;;;0.00;0.00;;;;;;;16.34;100.00;102174.56;10492854;28;20560;-81
2022/07/22 04:57:49;;;;;;;0.20;0.20;;;;;;;16.40;100.00;102171.19;10494218;28;20048;-81
2022/07/22 05:02:51;;;;;;;0.10;0.10;;;;;;;16.54;100.00;102168.91;10494079;28;20090;-81
2022/07/22 05:07:54;;;;;;;0.00;0.00;;;;;;;16.63;100.00;102171.72;10496252;28;20059;-81
2022/07/22 05:12:56;;;;;;;0.47;0.22;;;;;;;16.59;100.00;102168.19;10494207;28;20044;-81
2022/07/22 05:17:57;;;;;;;0.30;0.03;;;;;;;16.76;100.00;102158.09;10464086;28;20492;-81
2022/07/22 05:23:03;;;;;;;0.47;0.13;;;;;;;16.78;100.00;102169.44;10492372;28;20078;-81
2022/07/22 05:28:07;;;;;;;0.47;0.30;;;;;;;16.83;100.00;102163.44;10491338;28;20044;-81
2022/07/22 05:33:12;;;;;;;0.43;0.43;;;;;;;16.84;100.00;102165.19;10475924;28;20046;-81
2022/07/22 05:38:33;;;;;;;0.05;0.00;;;;;;;16.95;100.00;102163.69;10486123;28;20763;-81
2022/07/22 05:43:35;;;;;;;0.75;0.22;;;;;;;17.11;100.00;102163.16;10485920;28;20098;-81
2022/07/22 05:48:39;;;;;;;0.00;0.00;;;;;;;17.06;100.00;102157.00;10493976;28;20044;-81
2022/07/22 05:53:42;;;;;;;0.08;0.08;;;;;;;16.94;100.00;102152.41;10464986;28;20532;-81
2022/07/22 05:58:46;;;;;;;0.50;0.13;;;;;;;17.05;100.00;102155.22;10476159;28;20075;-81
2022/07/22 06:03:48;;;;;;;0.55;0.20;;;;;;;17.08;100.00;102144.00;10471442;28;20048;-81
2022/07/22 06:08:50;;;;;;;0.20;0.20;;;;;;;17.17;100.00;102148.47;10488192;28;20048;-81
2022/07/22 06:13:55;;;;;;;0.10;0.10;;;;;;;17.26;100.00;102139.13;10470996;28;20037;-81
2022/07/22 06:18:58;;;;;;;1.90;0.45;;;;;;;17.02;100.00;102139.53;10472692;28;20055;-81
2022/07/22 06:24:02;;;;;;;0.03;0.03;;;;;;;17.16;100.00;102141.53;10473092;28;20051;-81
2022/07/22 06:29:04;;;;;;;0.28;0.13;;;;;;;17.05;100.00;102134.41;10472406;28;20045;-81
2022/07/22 06:34:06;;;;;;;0.40;0.40;;;;;;;17.05;100.00;102131.78;10490009;28;20075;-81
2022/07/22 06:39:26;;;;;;;0.13;0.13;;;;;;;17.36;100.00;102134.06;10484040;28;20044;-81
2022/07/22 06:44:51;;;;;;;0.60;0.60;;;;;;;17.31;100.00;102135.72;10485825;28;20125;-80
2022/07/22 06:49:59;;;;;;;0.47;0.30;;;;;;;16.99;100.00;102147.31;10492856;28;20044;-81
2022/07/22 06:55:02;;;;;;;1.25;0.47;;;;;;;17.08;100.00;102150.09;10497017;28;20072;-80
2022/07/22 07:00:09;;;;;;;0.10;0.10;;;;;;;17.32;100.00;102137.47;10497506;28;20134;-81
2022/07/22 07:05:31;;;;;;;1.38;0.73;;;;;;;17.25;100.00;102128.66;10483851;28;20055;-81
2022/07/22 07:10:33;;;;;;;0.15;0.15;;;;;;;17.14;100.00;102112.84;10492164;28;20044;-80
2022/07/22 07:15:41;;;;;;;0.25;0.22;;;;;;;17.43;100.00;102115.97;10490121;28;20049;-81
2022/07/22 07:20:43;;;;;;;0.00;0.00;;;;;;;17.32;100.00;102107.09;10481162;28;20542;-80
2022/07/22 07:25:45;;;;;;;0.35;0.30;;;;;;;17.73;100.00;102104.28;10485484;28;20450;-80
2022/07/22 07:30:47;;;;;;;0.22;0.22;;;;;;;17.56;100.00;102095.31;10487913;28;20127;-80
2022/07/22 07:35:49;;;;;;;2.78;0.30;;;;;;;17.51;100.00;102091.78;10486702;28;20408;-80
2022/07/22 07:40:57;;;;;;;0.00;0.00;;;;;;;17.82;100.00;102085.31;10485454;28;20399;-80
2022/07/22 07:45:59;;;;;;;0.20;0.03;;;;;;;17.89;100.00;102081.06;10460979;28;20052;-81
2022/07/22 07:51:02;;;;;;;0.08;0.08;;;;;;;18.10;100.00;102093.53;10469750;28;20052;-80
2022/07/22 07:56:05;;;;;;;0.20;0.20;;;;;;;17.89;100.00;102087.13;10487185;28;20479;-80
2022/07/22 08:01:08;;;;;;;1.38;1.08;;;;;;;17.82;100.00;102087.91;10487648;28;20040;-80
2022/07/22 08:06:10;;;;;;;0.13;0.10;;;;;;;17.85;100.00;102087.97;10489743;28;20080;-81
2022/07/22 08:11:12;;;;;;;0.00;0.00;;;;;;;18.11;100.00;102099.66;10490509;28;20044;-80
2022/07/22 08:16:33;;;;;;;0.08;0.08;;;;;;;17.91;100.00;102103.69;10482934;28;20116;-80
2022/07/22 08:21:35;;;;;;;0.10;0.10;;;;;;;16.98;100.00;102122.13;10486659;28;20048;-80
2022/07/22 08:26:55;;;;;;;0.13;0.00;;;;;;;16.53;100.00;102122.94;10468927;28;20041;-80
2022/07/22 08:31:57;;;;;;;0.10;0.10;;;;;;;16.40;100.00;102133.09;10483874;28;20037;-80
2022/07/22 08:37:00;;;;;;;0.00;0.00;;;;;;;16.40;100.00;102143.50;10485242;28;20094;-80
2022/07/22 08:42:02;;;;;;;0.00;0.00;;;;;;;16.29;100.00;102144.97;10482075;28;20549;-80
2022/07/22 08:47:05;;;;;;;0.25;0.25;;;;;;;16.35;100.00;102147.69;10481179;28;20358;-80
2022/07/22 08:52:48;;;;;;;0.10;0.00;;;;;;;16.28;100.00;102143.19;10478588;28;20040;-80
2022/07/22 08:57:50;;;;;;;0.05;0.05;;;;;;;16.22;100.00;102137.88;10471052;28;20494;-80
2022/07/22 09:02:52;;;;;;;1.10;0.65;;;;;;;16.75;100.00;102140.72;10477021;28;20058;-80
2022/07/22 09:07:58;;;;;;;0.00;0.00;;;;;;;16.71;100.00;102123.31;10488510;28;20055;-80
2022/07/22 09:13:16;;;;;;;0.43;0.20;;;;;;;17.29;100.00;102112.25;10492302;28;20432;-80
2022/07/22 09:18:44;;;;;;;0.00;0.00;;;;;;;17.42;100.00;102109.00;10482010;28;20461;-80
2022/07/22 09:24:30;;;;;;;0.00;0.00;;;;;;;17.46;100.00;102093.44;10492002;28;20055;-80
2022/07/22 09:29:50;;;;;;;0.20;0.20;;;;;;;17.43;100.00;102095.13;10471149;28;20534;-79
2022/07/22 09:35:05;;;;;;;0.68;0.28;;;;;;;17.77;100.00;102103.47;10494040;28;20040;-80
2022/07/22 09:40:24;;;;;;;0.15;0.15;;;;;;;18.30;100.00;102100.78;10491017;28;20051;-80
2022/07/22 09:45:29;;;;;;;0.10;0.10;;;;;;;18.58;100.00;102096.75;10498991;28;20064;-80
2022/07/22 09:50:33;;;;;;;0.32;0.10;;;;;;;18.80;100.00;102081.34;10468838;28;20230;-80
2022/07/22 09:56:17;;;;;;;0.43;0.10;;;;;;;19.04;100.00;102070.28;10482656;28;20106;-79
2022/07/22 10:01:21;;;;;;;1.10;0.55;;;;;;;19.15;100.00;102089.53;10502001;28;20052;-80
2022/07/22 10:06:23;;;;;;;0.38;0.20;;;;;;;19.18;100.00;102073.91;10467205;28;20055;-80
2022/07/22 10:11:25;;;;;;;0.20;0.20;;;;;;;19.15;100.00;102057.34;10473233;28;20049;-79
2022/07/22 10:16:28;;;;;;;0.15;0.13;;;;;;;19.56;100.00;102054.16;10500531;28;20043;-79
2022/07/22 10:21:34;;;;;;;0.10;0.10;;;;;;;19.52;100.00;102062.84;10485761;28;20056;-80
2022/07/22 10:27:01;;;;;;;0.10;0.10;;;;;;;20.04;100.00;102050.97;10502429;28;20057;-80
2022/07/22 10:32:15;;;;;;;0.10;0.10;;;;;;;20.22;100.00;102040.56;10493531;28;20106;-80
2022/07/22 10:37:43;;;;;;;0.10;0.10;;;;;;;20.56;100.00;102032.84;10506756;28;20029;-79
2022/07/22 10:42:57;;;;;;;3.30;1.65;;;;;;;20.28;100.00;102040.63;10500310;28;20135;-80
2022/07/22 10:48:05;;;;;;;2.72;0.20;;;;;;;20.36;100.00;102037.16;10495151;28;20407;-79
2022/07/22 10:53:45;;;;;;;0.00;0.00;;;;;;;19.97;100.00;102037.88;10481421;28;20052;-79
2022/07/22 10:58:52;;;;;;;0.10;0.10;;;;;;;20.61;100.00;102038.09;10485225;28;20106;-80
2022/07/22 11:03:55;;;;;;;0.50;0.38;;;;;;;20.68;100.00;102033.72;10496612;28;20487;-79
2022/07/22 11:09:04;;;;;;;2.22;0.63;;;;;;;20.49;100.00;102027.56;10497405;28;20051;-80
2022/07/22 11:14:16;;;;;;;0.17;0.08;;;;;;;20.68;100.00;102033.72;10502448;28;20045;-79
2022/07/22 11:19:22;;;;;;;3.40;0.45;;;;;;;20.54;100.00;102036.34;10501584;28;20090;-79
2022/07/22 11:24:25;;;;;;;1.45;0.28;;;;;;;20.54;100.00;102024.09;10493223;28;20052;-79
2022/07/22 11:29:37;;;;;;;0.10;0.10;;;;;;;20.29;100.00;102024.03;10502229;28;20051;-79
2022/07/22 11:34:44;;;;;;;0.47;0.47;;;;;;;20.39;100.00;102003.13;10493558;28;20040;-79
2022/07/22 11:40:16;;;;;;;0.85;0.05;;;;;;;20.36;100.00;102005.75;10501034;28;20055;-79
2022/07/22 11:45:17;;;;;;;0.20;0.20;;;;;;;20.64;100.00;102004.03;10499722;28;20048;-79
2022/07/22 11:50:29;;;;;;;0.10;0.03;;;;;;;20.31;100.00;102000.50;10495448;28;20029;-79
2022/07/22 11:55:33;;;;;;;0.28;0.20;;;;;;;20.51;100.00;101999.66;10484410;28;20048;-79
2022/07/22 12:00:35;;;;;;;0.47;0.08;;;;;;;20.39;100.00;101992.66;10490810;28;20040;-79
2022/07/22 12:05:36;;;;;;;0.05;0.03;;;;;;;20.39;100.00;101990.03;10493858;28;20052;-79
2022/07/22 12:10:38;;;;;;;0.38;0.10;;;;;;;20.19;100.00;101985.66;10505296;28;20446;-80
2022/07/22 12:15:40;;;;;;;0.10;0.10;;;;;;;21.26;100.00;101982.28;10489473;28;20519;-79
2022/07/22 12:20:49;;;;;;;0.00;0.00;;;;;;;20.95;100.00;101970.06;10499944;28;20062;-79
2022/07/22 12:26:00;;;;;;;0.20;0.10;;;;;;;20.89;100.00;101967.44;10494641;28;20126;-79
2022/07/22 12:31:08;;;;;;;0.22;0.10;;;;;;;21.52;100.00;101961.25;10496848;28;20055;-79
2022/07/22 12:36:10;;;;;;;0.00;0.00;;;;;;;21.83;100.00;101954.16;10477512;28;20044;-80
2022/07/22 12:41:25;;;;;;;0.70;0.15;;;;;;;21.96;100.00;101952.38;10493376;28;20037;-79
2022/07/22 12:46:27;;;;;;;0.20;0.13;;;;;;;21.18;100.00;101946.47;10471458;28;20067;-79
2022/07/22 12:51:29;;;;;;;0.43;0.22;;;;;;;20.97;100.00;101931.66;10497081;28;20080;-79
2022/07/22 12:56:31;;;;;;;0.20;0.10;;;;;;;20.48;100.00;101934.25;10488856;28;20044;-80
2022/07/22 13:01:37;;;;;;;0.00;0.00;;;;;;;21.65;100.00;101933.25;10487914;28;20068;-79
2022/07/22 13:06:39;;;;;;;0.30;0.10;;;;;;;21.45;100.00;101931.53;10477810;28;20045;-79
2022/07/22 13:11:44;;;;;;;0.00;0.00;;;;;;;21.56;100.00;101932.38;10476733;28;20040;-79
2022/07/22 13:16:48;;;;;;;0.20;0.15;;;;;;;20.80;100.00;101934.28;10497024;28;20105;-80
2022/07/22 13:21:50;;;;;;;0.10;0.05;;;;;;;20.81;100.00;101925.56;10495006;28;20043;-79
2022/07/22 13:26:52;;;;;;;0.30;0.25;;;;;;;21.12;100.00;101933.34;10493067;28;20047;-79
2022/07/22 13:31:54;;;;;;;1.33;0.30;;;;;;;21.18;100.00;101930.75;10489095;28;20063;-80
2022/07/22 13:37:16;;;;;;;1.17;0.30;;;;;;;21.34;100.00;101930.69;10493229;28;20036;-79
2022/07/22 13:42:19;;;;;;;2.38;0.38;;;;;;;21.30;100.00;101926.34;10493426;28;20036;-80
2022/07/22 13:47:21;;;;;;;0.73;0.30;;;;;;;20.94;100.00;101928.16;10488543;28;20044;-79
2022/07/22 13:52:23;;;;;;;0.77;0.40;;;;;;;21.42;100.00;101915.81;10480592;28;20049;-79
2022/07/22 13:57:25;;;;;;;0.10;0.10;;;;;;;22.49;100.00;101905.66;10479106;28;20369;-80
2022/07/22 14:02:27;;;;;;;0.13;0.10;;;;;;;21.27;100.00;101915.84;10478659;28;20059;-79
2022/07/22 14:07:29;;;;;;;0.20;0.20;;;;;;;20.99;95.52;101905.44;10477634;28;20099;-79
2022/07/22 14:12:30;;;;;;;0.00;0.00;;;;;;;21.38;100.00;101904.47;10480004;28;20056;-80
2022/07/22 14:17:32;;;;;;;0.50;0.32;;;;;;;21.32;100.00;101895.75;10479047;28;20567;-79
2022/07/22 14:22:34;;;;;;;0.10;0.10;;;;;;;21.12;100.00;101899.28;10482800;28;20071;-79
2022/07/22 14:27:36;;;;;;;0.20;0.20;;;;;;;20.86;100.00;101917.66;10486158;28;20068;-79
2022/07/22 14:32:38;;;;;;;0.00;0.00;;;;;;;21.13;100.00;101919.38;10479808;28;20056;-80
2022/07/22 14:37:39;;;;;;;0.00;0.00;;;;;;;21.01;100.00;101919.41;10488154;28;20082;-79
2022/07/22 14:42:44;;;;;;;0.05;0.05;;;;;;;21.21;100.00;101917.63;10483229;28;20418;-79
2022/07/22 14:47:48;;;;;;;0.38;0.32;;;;;;;21.21;100.00;101915.00;10480013;28;20519;-79
2022/07/22 14:52:50;;;;;;;0.20;0.20;;;;;;;21.03;100.00;101902.81;10478758;28;20048;-79
2022/07/22 14:57:52;;;;;;;0.20;0.10;;;;;;;21.27;100.00;101908.00;10489837;28;20048;-79
2022/07/22 15:02:53;;;;;;;0.35;0.10;;;;;;;21.33;97.87;101902.75;10487100;28;20047;-79
2022/07/22 15:07:55;;;;;;;0.10;0.10;;;;;;;21.51;98.91;101897.44;10486747;28;20078;-79
2022/07/22 15:12:57;;;;;;;0.00;0.00;;;;;;;21.42;98.54;101896.59;10498100;28;20119;-79
2022/07/22 15:17:58;;;;;;;3.30;0.47;;;;;;;21.02;99.90;101897.59;10492647;28;20121;-79
2022/07/22 15:23:00;;;;;;;0.10;0.10;;;;;;;21.01;98.82;101890.59;10487052;28;20410;-80
2022/07/22 15:28:02;;;;;;;0.10;0.10;;;;;;;20.95;100.00;101890.63;10495150;28;20055;-78
2022/07/22 15:33:25;;;;;;;0.20;0.20;;;;;;;21.11;100.00;101886.22;10487981;28;20573;-80
2022/07/22 15:38:38;;;;;;;0.20;0.20;;;;;;;20.75;100.00;101883.63;10497464;28;20040;-79
2022/07/22 15:43:40;;;;;;;0.45;0.43;;;;;;;20.71;100.00;101892.34;10499302;28;20048;-79
2022/07/22 15:48:42;;;;;;;0.82;0.65;;;;;;;21.16;100.00;101885.31;10496853;28;20044;-79
2022/07/22 15:53:44;;;;;;;0.30;0.30;;;;;;;21.42;100.00;101879.13;10496515;28;20047;-80
2022/07/22 16:04:26;;;;;;;0.00;0.00;;;;;;;20.88;99.20;101853.97;10479300;28;20032;-79
2022/07/22 16:09:27;;;;;;;0.30;0.10;;;;;;;21.07;99.90;101853.91;10495708;28;20551;-80
2022/07/22 16:14:29;;;;;;;0.38;0.25;;;;;;;21.39;99.67;101847.69;10495507;28;20389;-79
2022/07/22 16:19:31;;;;;;;0.00;0.00;;;;;;;21.29;100.00;101853.84;10487225;28;20039;-79
2022/07/22 16:24:32;;;;;;;0.43;0.22;;;;;;;21.13;100.00;101838.16;10494255;28;20052;-80
2022/07/22 16:29:34;;;;;;;0.40;0.22;;;;;;;21.07;100.00;101846.91;10479761;28;20045;-79
2022/07/22 16:34:36;;;;;;;0.70;0.50;;;;;;;21.03;97.94;101841.69;10476383;28;20052;-79
2022/07/22 16:39:38;;;;;;;2.60;0.75;;;;;;;21.12;100.00;101830.31;10492986;28;20045;-80
2022/07/22 16:44:40;;;;;;;0.45;0.32;;;;;;;21.00;96.00;101833.84;10494760;28;20037;-80
2022/07/22 16:49:41;;;;;;;0.10;0.10;;;;;;;20.85;94.65;101829.53;10493354;28;20040;-79
2022/07/22 16:54:43;;;;;;;0.10;0.10;;;;;;;21.06;100.00;101816.38;10494404;28;20055;-79
2022/07/22 16:59:46;;;;;;;0.32;0.25;;;;;;;20.99;100.00;101825.13;10493215;28;20060;-80
2022/07/22 17:04:48;;;;;;;0.55;0.40;;;;;;;20.66;100.00;101831.28;10482102;28;20060;-79
2022/07/22 17:09:49;;;;;;;0.98;0.55;;;;;;;20.61;100.00;101833.88;10486381;28;20130;-79
2022/07/22 17:14:51;;;;;;;0.00;0.00;;;;;;;20.65;100.00;101832.13;10469317;28;20074;-79
2022/07/22 17:19:53;;;;;;;0.17;0.17;;;;;;;20.84;100.00;101841.72;10488265;28;20048;-79
2022/07/22 17:24:54;;;;;;;0.20;0.20;;;;;;;20.82;100.00;101840.84;10487722;28;20506;-78
2022/07/22 17:29:56;;;;;;;2.13;0.22;;;;;;;20.69;100.00;101836.47;10489990;28;20051;-78
2022/07/22 17:34:58;;;;;;;0.25;0.20;;;;;;;20.53;100.00;101826.03;10491857;28;20571;-79
2022/07/22 17:39:59;;;;;;;0.10;0.10;;;;;;;20.41;100.00;101826.03;10491713;28;20211;-79
2022/07/22 17:45:01;;;;;;;0.00;0.00;;;;;;;20.61;100.00;101824.28;10491915;28;20044;-79
2022/07/22 17:50:05;;;;;;;0.03;0.03;;;;;;;20.27;100.00;101834.78;10491274;28;20772;-79
2022/07/22 17:55:07;;;;;;;0.00;0.00;;;;;;;20.31;100.00;101829.53;10487854;28;20058;-79
2022/07/22 18:00:09;;;;;;;0.25;0.22;;;;;;;20.16;100.00;101830.41;10489256;28;20044;-79
2022/07/22 18:05:11;;;;;;;0.20;0.20;;;;;;;20.04;100.00;101833.88;10487684;28;20071;-79
2022/07/22 18:10:13;;;;;;;0.30;0.10;;;;;;;19.82;100.00;101815.50;10502145;28;20125;-79
2022/07/22 18:15:15;;;;;;;0.17;0.15;;;;;;;19.74;100.00;101812.84;10491197;28;20042;-79
2022/07/22 18:20:17;;;;;;;0.00;0.00;;;;;;;19.53;100.00;101807.56;10487370;28;20127;-79
2022/07/22 18:25:22;;;;;;;0.20;0.10;;;;;;;19.65;100.00;101815.47;10484631;28;20045;-78
2022/07/22 18:30:24;;;;;;;0.30;0.30;;;;;;;19.50;100.00;101804.09;10492452;28;20040;-79
2022/07/22 18:35:26;;;;;;;0.40;0.32;;;;;;;19.32;100.00;101815.34;10490150;28;20544;-78
2022/07/22 18:40:28;;;;;;;0.00;0.00;;;;;;;19.17;100.00;101805.72;10477189;28;20514;-78
2022/07/22 18:45:30;;;;;;;0.00;0.00;;;;;;;19.26;100.00;101804.88;10484958;28;20048;-78
2022/07/22 18:50:31;;;;;;;0.10;0.10;;;;;;;19.01;100.00;101804.78;10485486;28;20044;-79
2022/07/22 18:55:33;;;;;;;0.15;0.15;;;;;;;18.91;100.00;101813.38;10492493;28;20087;-79
2022/07/22 19:00:36;;;;;;;0.10;0.10;;;;;;;18.74;100.00;101808.06;10469817;28;20559;-79
2022/07/22 19:05:38;;;;;;;0.10;0.10;;;;;;;18.59;100.00;101797.53;10497449;28;20056;-78
2022/07/22 19:10:39;;;;;;;0.10;0.08;;;;;;;18.45;100.00;101792.19;10510060;28;20514;-78
2022/07/22 19:15:41;;;;;;;0.10;0.10;;;;;;;18.51;100.00;101807.88;10501889;28;20484;-78
2022/07/22 19:20:43;;;;;;;0.10;0.10;;;;;;;18.26;100.00;101815.53;10484032;28;20040;-79
2022/07/22 19:25:46;;;;;;;0.38;0.22;;;;;;;18.17;100.00;101803.28;10532662;28;20055;-78
2022/07/22 19:30:47;;;;;;;0.08;0.08;;;;;;;18.19;100.00;101829.38;10493717;28;20048;-78
2022/07/22 19:35:49;;;;;;;0.32;0.00;;;;;;;17.98;100.00;101830.94;10498282;28;20059;-79
2022/07/22 19:40:51;;;;;;;0.20;0.10;;;;;;;17.86;100.00;101843.78;10505265;28;20041;-79
2022/07/22 19:45:53;;;;;;;0.15;0.08;;;;;;;17.87;100.00;101845.53;10514478;28;20052;-79
2022/07/22 19:50:55;;;;;;;0.10;0.10;;;;;;;17.79;100.00;101848.09;10491338;28;20048;-79
2022/07/22 19:55:57;;;;;;;0.00;0.00;;;;;;;17.40;100.00;101854.56;10491461;28;20399;-78
2022/07/22 20:00:58;;;;;;;0.00;0.00;;;;;;;17.50;100.00;101868.56;10481384;28;20114;-79
2022/07/22 20:06:00;;;;;;;0.10;0.10;;;;;;;17.12;100.00;101865.47;10491735;28;20063;-78
2022/07/22 20:11:02;;;;;;;2.75;0.10;;;;;;;16.87;100.00;101863.31;10495247;28;20041;-79
2022/07/22 20:16:04;;;;;;;0.43;0.30;;;;;;;17.02;100.00;101857.50;10494686;28;20072;-79
2022/07/22 20:21:06;;;;;;;0.00;0.00;;;;;;;16.88;100.00;101865.06;10494992;28;20074;-78
2022/07/22 20:26:08;;;;;;;0.00;0.00;;;;;;;16.56;100.00;101857.66;10495345;28;20058;-78
2022/07/22 20:31:10;;;;;;;0.00;0.00;;;;;;;16.61;100.00;101850.78;10491829;28;20045;-78
2022/07/22 20:36:12;;;;;;;0.32;0.10;;;;;;;16.58;100.00;101871.53;10494488;28;20127;-79
2022/07/22 20:41:14;;;;;;;0.10;0.10;;;;;;;16.50;100.00;101876.63;10492046;28;20107;-79
2022/07/22 20:46:15;;;;;;;1.05;0.60;;;;;;;16.57;100.00;101875.03;10491636;28;20056;-79
2022/07/22 20:51:17;;;;;;;0.20;0.20;;;;;;;16.70;100.00;101863.06;10493854;28;20045;-78
2022/07/22 20:56:19;;;;;;;0.10;0.10;;;;;;;16.76;100.00;101871.84;10492164;28;20061;-80
2022/07/22 21:01:21;;;;;;;0.10;0.10;;;;;;;16.73;100.00;101887.41;10491907;28;20522;-78
2022/07/22 21:06:23;;;;;;;2.08;0.20;;;;;;;16.59;100.00;101874.19;10483654;28;20086;-79
2022/07/22 21:11:25;;;;;;;0.10;0.10;;;;;;;16.78;100.00;101875.38;10492917;28;20346;-78
2022/07/22 21:16:26;;;;;;;0.08;0.03;;;;;;;16.61;100.00;101882.88;10492952;28;20502;-79
2022/07/22 21:21:28;;;;;;;0.00;0.00;;;;;;;16.56;100.00;101899.28;10467331;28;20045;-78
2022/07/22 21:26:31;;;;;;;0.10;0.10;;;;;;;16.52;100.00;101902.66;10492893;28;20041;-79
2022/07/22 21:31:32;;;;;;;0.03;0.00;;;;;;;16.54;100.00;101895.75;10481669;28;20408;-79
2022/07/22 21:36:35;;;;;;;0.10;0.10;;;;;;;16.53;100.00;101905.28;10489732;28;20082;-79
2022/07/22 21:41:37;;;;;;;0.10;0.10;;;;;;;16.61;100.00;101900.22;10513726;28;20032;-79
2022/07/22 21:46:38;;;;;;;0.15;0.15;;;;;;;16.61;100.00;101887.22;10488577;28;20048;-79
2022/07/22 21:51:41;;;;;;;0.25;0.17;;;;;;;16.36;100.00;101891.97;10482046;28;20040;-80
2022/07/22 21:56:58;;;;;;;0.15;0.00;;;;;;;16.41;100.00;101900.78;10493387;28;20036;-79
2022/07/22 22:02:01;;;;;;;0.15;0.05;;;;;;;16.30;100.00;101910.09;10487136;28;20527;-80
2022/07/22 22:07:04;;;;;;;0.00;0.00;;;;;;;16.35;100.00;101916.22;10491933;28;20048;-79
2022/07/22 22:12:06;;;;;;;0.30;0.13;;;;;;;16.33;100.00;101894.56;10487188;28;20045;-79
2022/07/22 22:17:07;;;;;;;0.28;0.28;;;;;;;16.29;100.00;101895.31;10490809;28;20047;-80
2022/07/22 22:22:09;;;;;;;0.38;0.20;;;;;;;16.24;100.00;101928.19;10490442;28;20048;-79
2022/07/22 22:27:11;;;;;;;0.03;0.03;;;;;;;16.38;100.00;101921.50;10479904;28;20048;-79
2022/07/22 22:32:13;;;;;;;0.20;0.10;;;;;;;16.25;100.00;101912.59;10492166;28;20039;-79
2022/07/22 22:37:14;;;;;;;0.10;0.00;;;;;;;16.25;100.00;101914.34;10489957;28;20052;-79
2022/07/22 22:42:16;;;;;;;0.10;0.10;;;;;;;16.14;100.00;101917.59;10489746;28;20070;-80
2022/07/22 22:47:19;;;;;;;0.10;0.10;;;;;;;16.42;100.00;101912.91;10492285;28;20049;-79
2022/07/22 22:52:20;;;;;;;0.20;0.08;;;;;;;16.32;100.00;101911.84;10490507;28;20043;-79
2022/07/22 22:57:22;;;;;;;0.22;0.20;;;;;;;16.22;100.00;101924.66;10490704;28;20045;-79
2022/07/22 23:02:24;;;;;;;0.10;0.10;;;;;;;16.27;100.00;101923.03;10482836;28;20063;-80
2022/07/22 23:07:25;;;;;;;0.20;0.10;;;;;;;16.34;100.00;101906.72;10478757;28;20049;-78
2022/07/22 23:12:27;;;;;;;0.65;0.03;;;;;;;16.34;100.00;101922.31;10483900;28;20110;-78